Time;durP1;ratioP1;P1;durP2;ratioP2;P2;SDS_P1;SDS_P2;PMS_P1;PMS_P2;Temp;Humidity;BMP_temperature;BMP_pressure;BME280_temperature;BME280_humidity;BME280_pressure;Samples;Min_cycle;Max_cycle;Signal;HPM_P1;HPM_P2
2022/04/12 00:00:36;;;;;;;76.93;32.88;;;;;;;-149.78;100.00;50189.81;4903344;29;20041;-73
2022/04/12 00:03:02;;;;;;;83.10;33.55;;;;;;;-149.78;100.00;50185.91;4899938;29;20035;-73
2022/04/12 00:05:28;;;;;;;79.32;32.00;;;;;;;-149.78;100.00;50180.03;4898882;29;20404;-74
2022/04/12 00:07:54;;;;;;;90.13;34.78;;;;;;;-149.78;100.00;50172.22;4899915;29;20037;-74
2022/04/12 00:10:20;;;;;;;81.68;32.95;;;;;;;-149.78;100.00;50236.75;4899922;29;20060;-73
2022/04/12 00:12:46;;;;;;;82.55;33.13;;;;;;;-149.78;100.00;50217.19;4898598;29;20179;-73
2022/04/12 00:15:12;;;;;;;77.65;33.03;;;;;;;-149.78;100.00;50174.19;4899771;29;20044;-73
2022/04/12 00:20:27;;;;;;;78.88;32.33;;;;;;;-149.78;100.00;50158.53;4899605;29;20040;-73
2022/04/12 00:22:54;;;;;;;82.93;32.95;;;;;;;-149.78;100.00;50189.81;4898516;29;20032;-73
2022/04/12 00:25:23;;;;;;;74.30;32.95;;;;;;;-149.78;100.00;50182.00;4883329;29;20096;-74
2022/04/12 00:27:53;;;;;;;85.70;32.53;;;;;;;-149.78;100.00;50195.69;4899201;29;20043;-74
2022/04/12 00:30:20;;;;;;;84.60;32.45;;;;;;;-149.78;100.00;50182.00;4899536;29;20075;-73
2022/04/12 00:32:47;;;;;;;78.38;32.55;;;;;;;-149.78;100.00;50185.91;4898258;29;20056;-73
2022/04/12 00:35:13;;;;;;;75.28;31.17;;;;;;;-149.78;100.00;50166.34;4898405;29;20071;-74
2022/04/12 00:37:38;;;;;;;83.38;34.15;;;;;;;-149.78;100.00;50201.56;4915120;29;20068;-73
2022/04/12 00:40:05;;;;;;;86.15;32.10;;;;;;;-149.78;100.00;50162.44;4916867;29;20527;-74
2022/04/12 00:42:31;;;;;;;79.40;32.53;;;;;;;-149.78;100.00;50182.00;4917984;29;20051;-73
2022/04/12 00:44:58;;;;;;;87.15;33.08;;;;;;;-149.78;100.00;50162.44;4917024;29;20036;-73
2022/04/12 00:47:24;;;;;;;75.57;34.08;;;;;;;-149.78;100.00;50183.97;4918034;29;20032;-74
2022/04/12 00:49:50;;;;;;;84.53;34.30;;;;;;;-149.78;100.00;50209.38;4918108;29;20048;-74
2022/04/12 00:52:17;;;;;;;97.15;35.00;;;;;;;-149.78;100.00;50197.66;4918042;29;20043;-73
2022/04/12 00:54:44;;;;;;;91.13;33.00;;;;;;;-149.78;100.00;50170.25;4917857;29;20127;-74
2022/04/12 00:57:11;;;;;;;86.88;34.45;;;;;;;-149.78;100.00;50178.09;4918014;29;20039;-74
2022/04/12 00:59:37;;;;;;;86.25;34.78;;;;;;;-149.78;100.00;50182.00;4917964;29;20028;-74
2022/04/12 01:02:04;;;;;;;80.70;33.10;;;;;;;-149.78;100.00;50182.00;4916712;29;20503;-74
2022/04/12 01:04:30;;;;;;;82.43;34.60;;;;;;;-149.78;100.00;50209.38;4917855;29;20074;-73
2022/04/12 01:06:56;;;;;;;81.50;34.30;;;;;;;-149.78;100.00;50164.41;4917738;29;20047;-74
2022/04/12 01:09:25;;;;;;;83.00;33.67;;;;;;;-149.78;100.00;50193.72;4906093;29;20039;-73
2022/04/12 01:11:55;;;;;;;80.70;33.40;;;;;;;-149.78;100.00;50205.47;4902621;29;20378;-73
2022/04/12 01:14:23;;;;;;;83.75;34.13;;;;;;;-149.78;100.00;50170.25;4898154;29;20141;-73
2022/04/12 01:16:48;;;;;;;82.53;34.53;;;;;;;-149.78;100.00;50189.81;4898343;29;20696;-74
2022/04/12 01:19:14;;;;;;;85.15;34.33;;;;;;;-149.78;100.00;50178.09;4898283;29;20040;-73
2022/04/12 01:21:49;;;;;;;79.20;32.65;;;;;;;-149.78;100.00;50182.00;4898003;29;20044;-73
2022/04/12 01:24:15;;;;;;;79.32;32.72;;;;;;;-149.78;100.00;50178.09;4898143;29;20532;-73
2022/04/12 01:26:44;;;;;;;79.75;33.65;;;;;;;-149.78;100.00;50182.00;4912340;29;20044;-73
2022/04/12 01:29:10;;;;;;;80.70;34.13;;;;;;;-149.78;100.00;50182.00;4916811;29;20035;-72
2022/04/12 01:31:36;;;;;;;84.20;32.92;;;;;;;-149.78;100.00;50209.38;4915861;29;20063;-73
2022/04/12 01:34:02;;;;;;;84.50;32.97;;;;;;;-149.78;100.00;50174.19;4899808;29;20032;-72
2022/04/12 01:36:27;;;;;;;78.82;32.80;;;;;;;-149.78;100.00;50197.66;4916550;29;20043;-72
2022/04/12 01:38:53;;;;;;;91.85;34.30;;;;;;;-149.78;100.00;50199.59;4914567;29;20484;-73
2022/04/12 01:41:18;;;;;;;82.40;33.33;;;;;;;-149.78;100.00;50182.00;4894472;29;20422;-72
2022/04/12 01:43:44;;;;;;;88.40;33.28;;;;;;;-149.78;100.00;50185.91;4896638;29;20100;-72
2022/04/12 01:46:09;;;;;;;80.07;33.58;;;;;;;-149.78;100.00;50162.44;4896572;29;20044;-73
2022/04/12 01:48:35;;;;;;;86.82;33.20;;;;;;;-149.78;100.00;50189.81;4897506;29;20551;-73
2022/04/12 01:51:01;;;;;;;86.00;34.22;;;;;;;-149.78;100.00;50205.47;4897573;29;20119;-73
2022/04/12 01:53:29;;;;;;;86.70;34.13;;;;;;;-149.78;100.00;50170.25;4896966;29;20410;-73
2022/04/12 01:55:55;;;;;;;85.13;34.20;;;;;;;-149.78;100.00;50174.19;4896413;29;20040;-73
2022/04/12 01:58:20;;;;;;;79.18;33.35;;;;;;;-149.78;100.00;50189.81;4902250;29;20556;-73
2022/04/12 02:00:46;;;;;;;81.13;33.72;;;;;;;-149.78;100.00;50217.19;4891493;29;20048;-73
2022/04/12 02:03:12;;;;;;;87.32;33.30;;;;;;;-149.78;100.00;50178.09;4915158;29;20427;-72
2022/04/12 02:05:39;;;;;;;82.50;33.83;;;;;;;-149.78;100.00;50205.47;4916465;29;20043;-72
2022/04/12 02:08:06;;;;;;;81.53;32.97;;;;;;;-149.78;100.00;50162.44;4916272;29;20040;-72
2022/04/12 02:10:31;;;;;;;90.50;34.47;;;;;;;-149.78;100.00;50174.19;4915084;29;20099;-72
2022/04/12 02:12:57;;;;;;;91.97;34.92;;;;;;;-149.78;100.00;50189.81;4916093;29;20028;-72
2022/04/12 02:15:22;;;;;;;89.18;35.30;;;;;;;-149.78;100.00;50189.81;4916352;29;20036;-72
2022/04/12 02:17:48;;;;;;;84.13;34.53;;;;;;;-149.78;100.00;50213.28;4897615;29;20120;-73
2022/04/12 02:20:14;;;;;;;90.80;34.08;;;;;;;-149.78;100.00;50197.66;4893092;29;20045;-72
2022/04/12 02:22:40;;;;;;;89.13;34.47;;;;;;;-149.78;100.00;50174.19;4878671;29;20041;-72
2022/04/12 02:25:06;;;;;;;97.57;36.63;;;;;;;-149.78;100.00;50201.56;4877605;29;20041;-72
2022/04/12 02:27:32;;;;;;;85.78;34.92;;;;;;;-149.78;100.00;50197.66;4878780;29;20744;-72
2022/04/12 02:29:58;;;;;;;89.60;35.63;;;;;;;-149.78;100.00;50182.00;4878603;29;20037;-73
2022/04/12 02:32:24;;;;;;;92.10;34.88;;;;;;;-149.78;100.00;50197.66;4885534;29;20469;-73
2022/04/12 02:34:49;;;;;;;89.03;36.05;;;;;;;-149.78;100.00;50187.88;4897247;29;20041;-73
2022/04/12 02:37:15;;;;;;;84.95;35.25;;;;;;;-149.78;100.00;50180.03;4891428;29;20120;-73
2022/04/12 02:39:41;;;;;;;87.43;35.83;;;;;;;-149.78;100.00;50209.38;4895369;29;20136;-73
2022/04/12 02:42:07;;;;;;;96.18;36.65;;;;;;;-149.78;100.00;50207.44;4895744;29;20131;-73
2022/04/12 02:44:33;;;;;;;89.63;37.42;;;;;;;-149.78;100.00;50201.56;4897170;29;20071;-73
2022/04/12 02:46:58;;;;;;;97.80;36.83;;;;;;;-149.78;100.00;50162.44;4897147;29;20071;-72
2022/04/12 02:49:24;;;;;;;94.30;37.03;;;;;;;-149.78;100.00;50228.94;4895740;29;20052;-72
2022/04/12 02:51:51;;;;;;;91.95;35.90;;;;;;;-149.78;100.00;50189.81;4897181;29;20041;-72
2022/04/12 02:54:18;;;;;;;93.80;35.80;;;;;;;-149.78;100.00;50205.47;4899340;29;20085;-72
2022/04/12 02:56:44;;;;;;;90.88;35.65;;;;;;;-149.78;100.00;50201.56;4880607;29;20037;-73
2022/04/12 02:59:09;;;;;;;99.25;35.78;;;;;;;-149.78;100.00;50217.19;4898108;29;20074;-72
2022/04/12 03:01:35;;;;;;;93.13;35.20;;;;;;;-149.78;100.00;50178.09;4896621;29;20061;-72
2022/04/12 03:04:01;;;;;;;91.25;36.30;;;;;;;-149.78;100.00;50201.56;4898175;29;20040;-72
2022/04/12 03:06:28;;;;;;;87.70;35.97;;;;;;;-149.78;100.00;50201.56;4896899;29;20041;-73
2022/04/12 03:08:53;;;;;;;96.90;37.65;;;;;;;-149.78;100.00;50213.28;4898602;29;20127;-72
2022/04/12 03:11:19;;;;;;;96.40;34.95;;;;;;;-149.78;100.00;50197.66;4898717;29;20041;-73
2022/04/12 03:13:44;;;;;;;89.65;35.83;;;;;;;-149.78;100.00;50195.69;4898564;29;20047;-72
2022/04/12 03:16:10;;;;;;;86.35;35.40;;;;;;;-149.78;100.00;50178.09;4898463;29;20370;-72
2022/04/12 03:18:35;;;;;;;105.78;38.47;;;;;;;-149.78;100.00;50236.75;4899697;29;20045;-73
2022/04/12 03:21:01;;;;;;;87.07;34.80;;;;;;;-149.78;100.00;50221.13;4882920;29;20064;-73
2022/04/12 03:23:27;;;;;;;99.38;35.42;;;;;;;-149.78;100.00;50225.03;4900130;29;20032;-73
2022/04/12 03:25:52;;;;;;;81.97;35.05;;;;;;;-149.78;100.00;50221.13;4899587;29;20075;-73
2022/04/12 03:28:19;;;;;;;92.97;37.45;;;;;;;-149.78;100.00;50219.16;4898614;29;20097;-73
2022/04/12 03:30:45;;;;;;;85.95;33.88;;;;;;;-149.78;100.00;50189.81;4898334;29;20065;-73
2022/04/12 03:33:10;;;;;;;97.15;36.28;;;;;;;-149.78;100.00;50189.81;4898418;29;20075;-73
2022/04/12 03:35:36;;;;;;;95.22;36.05;;;;;;;-149.78;100.00;50238.72;4898027;29;20456;-73
2022/04/12 03:38:02;;;;;;;90.15;34.60;;;;;;;-149.78;100.00;50240.66;4898959;29;20503;-73
2022/04/12 03:40:31;;;;;;;96.18;36.38;;;;;;;-149.78;100.00;50209.38;4899660;29;20067;-72
2022/04/12 03:43:01;;;;;;;95.45;36.88;;;;;;;-149.78;100.00;50205.47;4899718;29;20037;-72
2022/04/12 03:45:28;;;;;;;92.53;36.15;;;;;;;-149.78;100.00;50197.66;4898491;29;20052;-72
2022/04/12 03:47:54;;;;;;;87.85;35.80;;;;;;;-149.78;100.00;50189.81;4898326;29;20127;-73
2022/04/12 03:50:21;;;;;;;93.47;35.75;;;;;;;-149.78;100.00;50221.13;4899744;29;20511;-73
2022/04/12 03:52:46;;;;;;;98.65;36.53;;;;;;;-149.78;100.00;50223.06;4899486;29;20028;-72
2022/04/12 03:55:12;;;;;;;94.78;36.13;;;;;;;-149.78;100.00;50201.56;4899604;29;20052;-72
2022/04/12 03:57:38;;;;;;;93.95;35.05;;;;;;;-149.78;100.00;50197.66;4899458;29;20566;-73
2022/04/12 04:00:08;;;;;;;95.15;34.28;;;;;;;-149.78;100.00;50226.97;4899472;29;20112;-72
2022/04/12 04:02:37;;;;;;;85.07;34.78;;;;;;;-149.78;100.00;50182.00;4898549;29;20040;-72
2022/04/12 04:05:03;;;;;;;94.70;33.45;;;;;;;-149.78;100.00;50207.44;4881781;29;20059;-73
2022/04/12 04:07:30;;;;;;;92.22;35.13;;;;;;;-149.78;100.00;50205.47;4898816;29;20036;-72
2022/04/12 04:09:55;;;;;;;85.68;32.78;;;;;;;-149.78;100.00;50189.81;4898793;29;20029;-72
2022/04/12 04:12:22;;;;;;;96.35;35.13;;;;;;;-149.78;100.00;50187.88;4898967;29;20040;-73
2022/04/12 04:14:48;;;;;;;92.65;34.05;;;;;;;-149.78;100.00;50189.81;4898774;29;20405;-73
2022/04/12 04:17:15;;;;;;;92.70;34.05;;;;;;;-149.78;100.00;50213.28;4898586;29;20036;-73
2022/04/12 04:19:40;;;;;;;89.00;33.60;;;;;;;-149.78;100.00;50217.19;4897608;29;20046;-73
2022/04/12 04:22:06;;;;;;;88.18;32.67;;;;;;;-149.78;100.00;50205.47;4897399;29;20373;-73
2022/04/12 04:24:32;;;;;;;89.00;32.90;;;;;;;-149.78;100.00;50217.19;4898701;29;20390;-73
2022/04/12 04:26:58;;;;;;;87.07;33.10;;;;;;;-149.78;100.00;50180.03;4897274;29;20043;-73
2022/04/12 04:29:24;;;;;;;95.68;33.60;;;;;;;-149.78;100.00;50225.03;4897993;29;20040;-73
2022/04/12 04:31:51;;;;;;;92.18;34.70;;;;;;;-149.78;100.00;50201.56;4896349;29;20036;-72
2022/04/12 04:34:17;;;;;;;89.38;34.90;;;;;;;-149.78;100.00;50174.19;4897308;29;20041;-72
2022/04/12 04:36:43;;;;;;;90.07;35.28;;;;;;;-149.78;100.00;50221.13;4897480;29;20064;-72
2022/04/12 04:39:10;;;;;;;91.47;33.10;;;;;;;-149.78;100.00;50217.19;4897242;29;20037;-73
2022/04/12 04:41:36;;;;;;;92.45;34.78;;;;;;;-149.78;100.00;50185.91;4896068;29;20432;-73
2022/04/12 04:44:01;;;;;;;103.15;35.33;;;;;;;-149.78;100.00;50244.59;4896410;29;20068;-72
2022/04/12 04:46:28;;;;;;;90.47;35.70;;;;;;;-149.78;100.00;50213.28;4896904;29;20449;-73
2022/04/12 04:48:53;;;;;;;100.68;34.83;;;;;;;-149.78;100.00;50182.00;4897226;29;20660;-72
2022/04/12 04:51:19;;;;;;;84.78;34.45;;;;;;;-149.78;100.00;50246.53;4897323;29;20044;-73
2022/04/12 04:53:50;;;;;;;91.05;34.10;;;;;;;-149.78;100.00;50217.19;4898258;29;20112;-73
2022/04/12 04:56:15;;;;;;;90.60;33.40;;;;;;;-149.78;100.00;50238.72;4898286;29;20532;-73
2022/04/12 04:58:42;;;;;;;91.57;33.55;;;;;;;-149.78;100.00;50209.38;4898374;29;20044;-73
2022/04/12 05:01:07;;;;;;;91.30;35.03;;;;;;;-149.78;100.00;50248.50;4898172;29;20055;-72
2022/04/12 05:03:33;;;;;;;89.55;33.38;;;;;;;-149.78;100.00;50197.66;4897077;29;20043;-72
2022/04/12 05:05:58;;;;;;;89.70;35.17;;;;;;;-149.78;100.00;50199.59;4896741;29;20519;-73
2022/04/12 05:08:24;;;;;;;91.82;35.13;;;;;;;-149.78;100.00;50221.13;4896993;29;20560;-72
2022/04/12 05:10:50;;;;;;;88.35;33.97;;;;;;;-149.78;100.00;50228.94;4896844;29;20416;-72
2022/04/12 05:13:16;;;;;;;99.80;34.25;;;;;;;-149.78;100.00;50207.44;4896642;29;20489;-73
2022/04/12 05:15:42;;;;;;;96.25;35.38;;;;;;;-149.78;100.00;50230.88;4897939;29;20080;-72
2022/04/12 05:18:08;;;;;;;94.50;33.85;;;;;;;-149.78;100.00;50228.94;4896682;29;20037;-73
2022/04/12 05:20:34;;;;;;;101.57;36.58;;;;;;;-149.78;100.00;50260.22;4897795;29;20040;-73
2022/04/12 05:23:01;;;;;;;87.95;33.90;;;;;;;-149.78;100.00;50252.41;4896563;29;20389;-73
2022/04/12 05:25:27;;;;;;;88.53;34.08;;;;;;;-149.78;100.00;50201.56;4896730;29;20060;-72
2022/04/12 05:27:53;;;;;;;99.55;35.60;;;;;;;-149.78;100.00;50238.72;4865662;29;20053;-73
2022/04/12 05:30:19;;;;;;;101.15;35.10;;;;;;;-149.78;100.00;50217.19;4896601;29;20128;-73
2022/04/12 05:32:45;;;;;;;101.07;36.60;;;;;;;-149.78;100.00;50185.91;4881022;29;20061;-72
2022/04/12 05:35:12;;;;;;;96.28;35.78;;;;;;;-149.78;100.00;50217.19;4896550;29;20104;-73
2022/04/12 05:37:48;;;;;;;103.55;35.17;;;;;;;-149.78;100.00;50248.50;4897678;29;20037;-73
2022/04/12 05:40:15;;;;;;;103.30;34.92;;;;;;;-149.78;100.00;50225.03;4897441;29;20174;-73
2022/04/12 05:42:41;;;;;;;110.75;36.08;;;;;;;-149.78;100.00;50217.19;4897415;29;20404;-73
2022/04/12 05:45:09;;;;;;;101.00;35.88;;;;;;;-149.78;100.00;50240.66;4897593;29;20053;-72
2022/04/12 05:47:41;;;;;;;106.72;37.63;;;;;;;-149.78;100.00;50240.66;4897466;29;20111;-73
2022/04/12 05:50:08;;;;;;;107.65;37.28;;;;;;;-149.78;100.00;50232.84;4896328;29;20135;-73
2022/04/12 05:52:33;;;;;;;111.60;37.30;;;;;;;-149.78;100.00;50264.13;4897084;29;20640;-73
2022/04/12 05:55:00;;;;;;;103.05;36.17;;;;;;;-149.78;100.00;50205.47;4897105;29;20048;-73
2022/04/12 05:57:27;;;;;;;104.22;36.35;;;;;;;-149.78;100.00;50205.47;4897147;29;20075;-72
2022/04/12 05:59:52;;;;;;;107.65;37.85;;;;;;;-149.78;100.00;50232.84;4895840;29;20044;-73
2022/04/12 06:02:18;;;;;;;108.47;36.45;;;;;;;-149.78;100.00;50187.88;4895768;29;20122;-72
2022/04/12 06:04:43;;;;;;;100.00;35.72;;;;;;;-149.78;100.00;50193.72;4895631;29;20040;-72
2022/04/12 06:07:09;;;;;;;110.13;37.67;;;;;;;-149.78;100.00;50228.94;4895635;29;20396;-72
2022/04/12 06:09:34;;;;;;;111.38;37.95;;;;;;;-149.78;100.00;50189.81;4895683;29;20037;-72
2022/04/12 06:12:00;;;;;;;102.53;37.28;;;;;;;-149.78;100.00;50226.97;4880106;29;20084;-73
2022/04/12 06:14:27;;;;;;;119.00;41.88;;;;;;;-149.78;100.00;50244.59;4896954;29;20036;-73
2022/04/12 06:16:52;;;;;;;117.60;39.00;;;;;;;-149.78;100.00;50209.38;4897152;29;20040;-73
2022/04/12 06:19:18;;;;;;;121.43;40.63;;;;;;;-149.78;100.00;50189.81;4896814;29;20036;-73
2022/04/12 06:21:44;;;;;;;110.05;38.03;;;;;;;-149.78;100.00;50250.44;4895542;29;20048;-73
2022/04/12 06:24:09;;;;;;;126.90;41.55;;;;;;;-149.78;100.00;50217.19;4896860;29;20040;-73
2022/04/12 06:26:35;;;;;;;120.68;39.63;;;;;;;-149.78;100.00;50217.19;4897999;29;20041;-73
2022/04/12 06:29:01;;;;;;;120.85;38.28;;;;;;;-149.78;100.00;50232.84;4899418;29;20041;-73
2022/04/12 06:31:26;;;;;;;112.60;39.42;;;;;;;-149.78;100.00;50236.75;4899693;29;20123;-73
2022/04/12 06:33:52;;;;;;;135.27;40.35;;;;;;;-149.78;100.00;50205.47;4891678;29;20040;-73
2022/04/12 06:36:18;;;;;;;114.35;39.30;;;;;;;-149.78;100.00;50262.19;4907610;29;20040;-73
2022/04/12 06:38:43;;;;;;;113.70;39.13;;;;;;;-149.78;100.00;50213.28;4917983;29;20102;-73
2022/04/12 06:41:11;;;;;;;110.68;39.45;;;;;;;-149.78;100.00;50225.03;4886940;29;20161;-73
2022/04/12 06:43:38;;;;;;;119.97;40.78;;;;;;;-149.78;100.00;50213.28;4881626;29;20056;-73
2022/04/12 06:46:03;;;;;;;114.53;39.47;;;;;;;-149.78;100.00;50225.03;4881679;29;20041;-73
2022/04/12 06:48:30;;;;;;;115.10;38.17;;;;;;;-149.78;100.00;50236.75;4882903;29;20124;-73
2022/04/12 06:50:56;;;;;;;105.35;37.40;;;;;;;-149.78;100.00;50162.44;4898958;29;20044;-73
2022/04/12 06:53:23;;;;;;;109.93;38.22;;;;;;;-149.78;100.00;50238.72;4900333;29;20036;-73
2022/04/12 06:55:49;;;;;;;103.20;38.17;;;;;;;-149.78;100.00;50248.50;4900260;29;20127;-73
2022/04/12 06:58:14;;;;;;;104.47;36.83;;;;;;;-149.78;100.00;50225.03;4898858;29;20107;-73
2022/04/12 07:00:41;;;;;;;109.30;37.92;;;;;;;-149.78;100.00;50205.47;4900145;29;20087;-73
2022/04/12 07:03:07;;;;;;;112.88;37.45;;;;;;;-149.78;100.00;50234.81;4900154;29;20060;-73
2022/04/12 07:05:33;;;;;;;109.40;38.22;;;;;;;-149.78;100.00;50189.81;4899120;29;20083;-74
2022/04/12 07:08:00;;;;;;;108.70;37.15;;;;;;;-149.78;100.00;50197.66;4900023;29;20187;-73
2022/04/12 07:10:25;;;;;;;105.05;36.95;;;;;;;-149.78;100.00;50201.56;4900159;29;20040;-73
2022/04/12 07:12:53;;;;;;;101.72;35.85;;;;;;;-149.78;100.00;50213.28;4899766;29;20111;-73
2022/04/12 07:15:19;;;;;;;106.85;37.67;;;;;;;-149.78;100.00;50225.03;4899737;29;20047;-73
2022/04/12 07:17:45;;;;;;;100.18;35.60;;;;;;;-149.78;100.00;50221.13;4912253;29;20123;-73
2022/04/12 07:20:11;;;;;;;102.03;35.95;;;;;;;-149.78;100.00;50225.03;4918100;29;20114;-73
2022/04/12 07:22:39;;;;;;;103.85;37.50;;;;;;;-149.78;100.00;50185.91;4919089;29;20532;-73
2022/04/12 07:25:05;;;;;;;99.47;36.00;;;;;;;-149.78;100.00;50205.47;4902321;29;20187;-73
2022/04/12 07:27:36;;;;;;;108.47;36.63;;;;;;;-149.78;100.00;50215.25;4917946;29;20044;-73
2022/04/12 07:30:07;;;;;;;112.38;39.13;;;;;;;-149.78;100.00;50248.50;4919079;29;20035;-74
2022/04/12 07:32:33;;;;;;;103.75;37.13;;;;;;;-149.78;100.00;50205.47;4919110;29;20031;-73
2022/04/12 07:34:59;;;;;;;98.18;37.60;;;;;;;-149.78;100.00;50226.97;4917688;29;20040;-73
2022/04/12 07:37:25;;;;;;;120.22;38.08;;;;;;;-149.78;100.00;50217.19;4917821;29;20040;-72
2022/04/12 07:39:51;;;;;;;115.68;38.05;;;;;;;-149.78;100.00;50221.13;4913448;29;20497;-73
2022/04/12 07:42:16;;;;;;;113.68;39.15;;;;;;;-149.78;100.00;50197.66;4898857;29;20408;-73
2022/04/12 07:44:42;;;;;;;114.43;39.55;;;;;;;-149.78;100.00;50221.13;4898781;29;20172;-73
2022/04/12 07:47:08;;;;;;;106.07;38.25;;;;;;;-149.78;100.00;50228.94;4900068;29;20508;-73
2022/04/12 07:49:34;;;;;;;110.45;37.65;;;;;;;-149.78;100.00;50232.84;4900061;29;20527;-74
2022/04/12 07:51:59;;;;;;;101.35;37.35;;;;;;;-149.78;100.00;50207.44;4883140;29;20120;-73
2022/04/12 07:54:25;;;;;;;106.50;39.60;;;;;;;-149.78;100.00;50213.28;4899911;29;20044;-72
2022/04/12 07:56:51;;;;;;;106.85;40.40;;;;;;;-149.78;100.00;50225.03;4899686;29;20047;-73
2022/04/12 07:59:17;;;;;;;105.57;38.42;;;;;;;-149.78;100.00;50242.63;4898591;29;20504;-73
2022/04/12 08:01:42;;;;;;;103.55;39.22;;;;;;;-149.78;100.00;50207.44;4899598;29;20060;-73
2022/04/12 08:04:09;;;;;;;107.63;38.47;;;;;;;-149.78;100.00;50217.19;4899798;29;20040;-73
2022/04/12 08:06:35;;;;;;;104.47;38.95;;;;;;;-149.78;100.00;50256.31;4899597;29;20520;-73
2022/04/12 08:09:01;;;;;;;119.38;39.45;;;;;;;-149.78;100.00;50209.38;4899450;29;20044;-73
2022/04/12 08:11:27;;;;;;;112.80;38.38;;;;;;;-149.78;100.00;50217.19;4898299;29;20163;-74
2022/04/12 08:13:53;;;;;;;114.70;38.47;;;;;;;-149.78;100.00;50207.44;4899589;29;20064;-73
2022/04/12 08:16:19;;;;;;;115.90;40.33;;;;;;;-149.78;100.00;50193.72;4883684;29;20775;-73
2022/04/12 08:18:45;;;;;;;113.80;36.58;;;;;;;-149.78;100.00;50225.03;4918164;29;20074;-73
2022/04/12 08:21:11;;;;;;;113.72;37.85;;;;;;;-149.78;100.00;50225.03;4917026;29;20079;-73
2022/04/12 08:23:36;;;;;;;109.95;39.20;;;;;;;-149.78;100.00;50221.13;4917991;29;20040;-73
2022/04/12 08:26:03;;;;;;;98.70;37.92;;;;;;;-149.78;100.00;50236.75;4901375;29;20400;-73
2022/04/12 08:28:29;;;;;;;103.22;38.85;;;;;;;-149.78;100.00;50256.31;4918033;29;20040;-73
2022/04/12 08:30:54;;;;;;;103.60;37.95;;;;;;;-149.78;100.00;50211.34;4917954;29;20047;-73
2022/04/12 08:33:20;;;;;;;126.18;38.95;;;;;;;-149.78;100.00;50240.66;4916837;29;20040;-73
2022/04/12 08:35:46;;;;;;;106.65;39.25;;;;;;;-149.78;100.00;50219.16;4917746;29;20054;-73
2022/04/12 08:38:12;;;;;;;105.55;40.90;;;;;;;-149.78;100.00;50232.84;4917727;29;20130;-73
2022/04/12 08:40:39;;;;;;;125.85;40.83;;;;;;;-149.78;100.00;50217.19;4906750;29;20040;-73
2022/04/12 08:43:06;;;;;;;109.97;38.97;;;;;;;-149.78;100.00;50217.19;4897758;29;20503;-73
2022/04/12 08:45:34;;;;;;;115.75;39.17;;;;;;;-149.78;100.00;50213.28;4899014;29;20465;-73
2022/04/12 08:48:01;;;;;;;122.47;40.20;;;;;;;-149.78;100.00;50244.59;4897257;29;20044;-73
2022/04/12 08:50:27;;;;;;;114.55;40.63;;;;;;;-149.78;100.00;50236.75;4898978;29;20036;-73
2022/04/12 08:52:54;;;;;;;109.88;37.58;;;;;;;-149.78;100.00;50221.13;4898612;29;20047;-74
2022/04/12 08:55:20;;;;;;;110.03;39.50;;;;;;;-149.78;100.00;50225.03;4897566;29;20069;-73
2022/04/12 08:57:46;;;;;;;115.07;40.55;;;;;;;-149.78;100.00;50244.59;4897644;29;20052;-73
2022/04/12 09:00:12;;;;;;;121.55;40.90;;;;;;;-149.78;100.00;50225.03;4881760;29;20037;-73
2022/04/12 09:02:39;;;;;;;128.88;42.30;;;;;;;-149.78;100.00;50236.75;4897088;29;20061;-72
2022/04/12 09:05:06;;;;;;;122.00;42.20;;;;;;;-149.78;100.00;50225.03;4881730;29;20040;-73
2022/04/12 09:07:32;;;;;;;117.75;42.08;;;;;;;-149.78;100.00;50236.75;4897073;29;20049;-72
2022/04/12 09:10:09;;;;;;;126.60;43.42;;;;;;;-149.78;100.00;50228.94;4898193;29;20032;-74
2022/04/12 09:12:35;;;;;;;124.75;42.65;;;;;;;-149.78;100.00;50244.59;4897294;29;20037;-73
2022/04/12 09:15:01;;;;;;;141.13;44.75;;;;;;;-149.78;100.00;50225.03;4897176;29;20044;-73
2022/04/12 09:17:35;;;;;;;123.63;42.92;;;;;;;-149.78;100.00;50236.75;4908749;29;20050;-73
2022/04/12 09:20:04;;;;;;;118.90;43.38;;;;;;;-149.78;100.00;50232.84;4917152;29;20107;-73
2022/04/12 09:22:32;;;;;;;128.65;44.65;;;;;;;-149.78;100.00;50228.94;4917096;29;20099;-73
2022/04/12 09:25:00;;;;;;;131.15;43.92;;;;;;;-149.78;100.00;50232.84;4916805;29;20028;-74
2022/04/12 09:27:27;;;;;;;136.77;45.50;;;;;;;-149.78;100.00;50205.47;4916867;29;20047;-74
2022/04/12 09:29:57;;;;;;;126.88;44.03;;;;;;;-149.78;100.00;50244.59;4915466;29;20036;-73
2022/04/12 09:32:25;;;;;;;124.47;44.65;;;;;;;-149.78;100.00;50226.97;4916544;29;20468;-73
2022/04/12 09:34:52;;;;;;;126.57;44.13;;;;;;;-149.78;100.00;50260.22;4916403;29;20087;-74
2022/04/12 09:37:29;;;;;;;127.35;43.40;;;;;;;-149.78;100.00;50244.59;4899326;29;20035;-74
2022/04/12 09:40:00;;;;;;;132.65;45.38;;;;;;;-149.78;100.00;50236.75;4911767;29;20080;-74
2022/04/12 09:42:48;;;;;;;129.15;44.55;;;;;;;-149.78;100.00;50219.16;4897355;29;20076;-73
2022/04/12 09:45:22;;;;;;;134.65;44.65;;;;;;;-149.78;100.00;50260.22;4897256;29;20140;-73
2022/04/12 09:47:50;;;;;;;128.27;45.45;;;;;;;-149.78;100.00;50244.59;4896178;29;20394;-73
2022/04/12 09:50:18;;;;;;;138.90;48.83;;;;;;;-149.78;100.00;50256.31;4897157;29;20028;-73
2022/04/12 09:52:55;;;;;;;132.02;47.00;;;;;;;-149.78;100.00;50240.66;4895938;29;20425;-73
2022/04/12 09:55:34;;;;;;;125.75;45.22;;;;;;;-149.78;100.00;50248.50;4897118;29;20163;-73
2022/04/12 09:58:08;;;;;;;149.07;48.70;;;;;;;-149.78;100.00;50221.13;4896991;29;20037;-73
2022/04/12 10:00:35;;;;;;;127.85;43.75;;;;;;;-149.78;100.00;50244.59;4896346;29;20132;-73
2022/04/12 10:03:09;;;;;;;124.53;43.55;;;;;;;-149.78;100.00;50213.28;4896005;29;20064;-73
2022/04/12 10:05:35;;;;;;;131.65;46.08;;;;;;;-149.78;100.00;50201.56;4895179;29;20120;-73
2022/04/12 10:08:05;;;;;;;136.65;47.30;;;;;;;-149.78;100.00;50225.03;4895214;29;20052;-73
2022/04/12 10:10:31;;;;;;;119.95;43.47;;;;;;;-149.78;100.00;50197.66;4895564;29;20598;-73
2022/04/12 10:12:59;;;;;;;115.78;44.60;;;;;;;-149.78;100.00;50228.94;4896767;29;20040;-73
2022/04/12 10:15:26;;;;;;;118.72;42.40;;;;;;;-149.78;100.00;50256.31;4896891;29;20037;-72
2022/04/12 10:17:52;;;;;;;112.28;43.65;;;;;;;-149.78;100.00;50225.03;4910540;29;20040;-73
2022/04/12 10:20:19;;;;;;;126.97;44.60;;;;;;;-149.78;100.00;50254.34;4916409;29;20088;-73
2022/04/12 10:22:46;;;;;;;117.15;43.83;;;;;;;-149.78;100.00;50264.13;4916311;29;20536;-73
2022/04/12 10:25:17;;;;;;;117.00;44.58;;;;;;;-149.78;100.00;50228.94;4916507;29;20040;-73
2022/04/12 10:27:43;;;;;;;138.85;46.97;;;;;;;-149.78;100.00;50250.44;4915958;29;20057;-72
2022/04/12 10:30:15;;;;;;;123.93;44.83;;;;;;;-149.78;100.00;50221.13;4916281;29;20166;-72
2022/04/12 10:33:02;;;;;;;118.82;44.72;;;;;;;-149.78;100.00;50246.53;4916357;29;20083;-73
2022/04/12 10:35:48;;;;;;;115.97;43.28;;;;;;;-149.78;100.00;50213.28;4915046;29;20040;-72
2022/04/12 10:38:16;;;;;;;134.23;46.70;;;;;;;-149.78;100.00;50254.34;4906008;29;20052;-72
2022/04/12 10:40:46;;;;;;;129.63;45.33;;;;;;;-149.78;100.00;50234.81;4905551;29;20064;-72
2022/04/12 10:43:22;;;;;;;122.85;43.88;;;;;;;-149.78;100.00;50217.19;4895904;29;20041;-73
2022/04/12 10:45:49;;;;;;;133.27;46.90;;;;;;;-149.78;100.00;50234.81;4895998;29;20180;-73
2022/04/12 10:48:20;;;;;;;132.90;46.60;;;;;;;-149.78;100.00;50236.75;4896230;29;20028;-72
2022/04/12 10:50:47;;;;;;;126.97;45.13;;;;;;;-149.78;100.00;50250.44;4897373;29;20060;-73